createdAt,value
2018-02-16T00:00:59.182Z,24.90
2018-02-16T00:03:26.671Z,24.83
2018-02-16T00:05:55.183Z,25.23
2018-02-16T00:08:22.705Z,24.20
2018-02-16T00:10:50.973Z,21.30
2018-02-16T00:13:19.273Z,25.67
2018-02-16T00:15:46.782Z,21.50
2018-02-16T00:18:14.543Z,22.30
2018-02-16T00:20:42.051Z,23.73
2018-02-16T00:23:09.552Z,20.57
2018-02-16T00:25:37.359Z,25.90
2018-02-16T00:28:05.603Z,23.63
2018-02-16T00:30:33.117Z,19.67
2018-02-16T00:33:00.628Z,17.57
2018-02-16T00:35:28.128Z,18.37
2018-02-16T00:37:55.624Z,27.03
2018-02-16T00:40:23.134Z,18.40
2018-02-16T00:42:50.623Z,27.67
2018-02-16T00:45:18.114Z,18.37
2018-02-16T00:47:45.906Z,23.40
2018-02-16T00:50:14.172Z,29.70
2018-02-16T00:52:42.445Z,28.97
2018-02-16T00:55:10.994Z,27.00
2018-02-16T00:57:38.560Z,24.97
2018-02-16T01:00:06.106Z,24.63
2018-02-16T01:02:33.907Z,28.43
2018-02-16T01:05:01.440Z,24.87
2018-02-16T01:07:28.944Z,23.03
2018-02-16T01:09:56.450Z,34.67
2018-02-16T01:12:23.966Z,26.30
2018-02-16T01:14:51.485Z,25.07
2018-02-16T01:17:19.375Z,32.37
2018-02-16T01:19:46.858Z,28.53
2018-02-16T01:22:14.356Z,26.43
2018-02-16T01:24:42.269Z,28.20
2018-02-16T01:27:09.883Z,25.63
2018-02-16T01:29:37.374Z,29.37
2018-02-16T01:32:05.263Z,23.17
2018-02-16T01:34:32.770Z,34.07
2018-02-16T01:37:00.250Z,29.50
2018-02-16T01:39:28.097Z,25.40
2018-02-16T01:41:55.713Z,24.97
2018-02-16T01:44:23.211Z,27.83
2018-02-16T01:46:51.023Z,29.63
2018-02-16T01:49:18.514Z,32.40
2018-02-16T01:51:46.002Z,26.43
2018-02-16T01:54:13.889Z,27.13
2018-02-16T01:56:41.425Z,25.13
2018-02-16T01:59:08.907Z,26.63
2018-02-16T02:01:36.774Z,23.90
2018-02-16T02:04:05.102Z,28.50
2018-02-16T02:06:32.596Z,25.67
2018-02-16T02:09:00.094Z,22.60
2018-02-16T02:11:27.587Z,22.70
2018-02-16T02:13:55.362Z,25.63
2018-02-16T02:16:22.870Z,25.17
2018-02-16T02:18:50.362Z,23.97
2018-02-16T02:21:17.846Z,23.43
2018-02-16T02:23:45.346Z,25.33
2018-02-16T02:26:13.288Z,20.83
2018-02-16T02:28:40.802Z,23.83
2018-02-16T02:31:08.390Z,23.77
2018-02-16T02:33:35.891Z,23.53
2018-02-16T02:36:03.388Z,22.23
2018-02-16T02:38:31.193Z,20.70
2018-02-16T02:40:58.697Z,23.70
2018-02-16T02:43:26.955Z,17.40
2018-02-16T02:45:54.455Z,20.20
2018-02-16T02:48:21.953Z,22.00
2018-02-16T02:50:49.807Z,23.00
2018-02-16T02:53:17.294Z,18.00
2018-02-16T02:55:44.842Z,19.20
2018-02-16T02:58:13.403Z,20.50
2018-02-16T03:00:40.922Z,16.73
2018-02-16T03:03:08.413Z,17.17
2018-02-16T03:05:36.680Z,17.13
2018-02-16T03:08:04.956Z,18.60
2018-02-16T03:10:33.532Z,16.33
2018-02-16T03:13:01.032Z,20.70
2018-02-16T03:15:28.548Z,17.67
2018-02-16T03:17:56.831Z,17.47
2018-02-16T03:20:24.321Z,21.27
2018-02-16T03:22:52.153Z,15.73
2018-02-16T03:25:19.655Z,15.73
2018-02-16T03:27:47.181Z,16.37
2018-02-16T03:30:14.691Z,19.53
2018-02-16T03:32:42.182Z,17.17
2018-02-16T03:35:10.084Z,18.03
2018-02-16T03:37:37.587Z,17.07
2018-02-16T03:40:05.084Z,18.40
2018-02-16T03:42:32.585Z,20.23
2018-02-16T03:45:00.122Z,15.87
2018-02-16T03:47:28.068Z,16.43
2018-02-16T03:49:55.600Z,19.90
2018-02-16T03:52:23.103Z,17.03
2018-02-16T03:54:50.618Z,17.47
2018-02-16T03:57:18.887Z,16.80
2018-02-16T03:59:47.487Z,17.43
2018-02-16T04:02:14.999Z,18.73
2018-02-16T04:04:42.527Z,21.03
2018-02-16T04:07:10.279Z,18.17
2018-02-16T04:09:37.782Z,17.33
2018-02-16T04:12:05.367Z,18.47
2018-02-16T04:14:33.644Z,22.60
2018-02-16T04:17:01.919Z,19.27
2018-02-16T04:19:31.545Z,20.50
2018-02-16T04:21:59.042Z,18.00
2018-02-16T04:24:26.877Z,20.87
2018-02-16T04:26:54.384Z,22.17
2018-02-16T04:29:21.901Z,24.13
2018-02-16T04:31:49.896Z,20.50
2018-02-16T04:34:17.383Z,20.03
2018-02-16T04:36:44.878Z,23.63
2018-02-16T04:39:12.378Z,24.37
2018-02-16T04:41:39.880Z,25.63
2018-02-16T04:44:08.465Z,22.03
2018-02-16T04:46:35.999Z,22.37
2018-02-16T04:49:03.504Z,28.33
2018-02-16T04:51:31.015Z,21.67
2018-02-16T04:53:58.571Z,25.93
2018-02-16T04:56:26.394Z,25.53
2018-02-16T04:58:53.907Z,23.70
2018-02-16T05:01:22.309Z,27.47
2018-02-16T05:03:49.828Z,22.23
2018-02-16T05:06:18.115Z,31.13
2018-02-16T05:08:46.731Z,26.80
2018-02-16T05:11:14.266Z,19.53
2018-02-16T05:13:42.651Z,26.13
2018-02-16T05:16:10.161Z,27.93
2018-02-16T05:18:37.670Z,22.70
2018-02-16T05:21:05.558Z,28.47
2018-02-16T05:23:33.047Z,27.83
2018-02-16T05:26:00.591Z,25.83
2018-02-16T05:28:28.105Z,24.43
2018-02-16T05:30:55.676Z,24.03
2018-02-16T05:33:23.534Z,31.03
2018-02-16T05:35:51.840Z,25.17
2018-02-16T05:38:19.342Z,25.90
2018-02-16T05:40:46.866Z,28.67
2018-02-16T05:43:14.361Z,26.10
2018-02-16T05:45:42.276Z,30.43
2018-02-16T05:48:09.786Z,31.20
2018-02-16T05:50:37.284Z,30.73
2018-02-16T05:53:05.114Z,30.37
2018-02-16T05:55:32.618Z,28.20
2018-02-16T05:58:00.120Z,29.43
2018-02-16T06:00:27.658Z,23.43
2018-02-16T06:02:55.174Z,32.23
2018-02-16T06:05:23.054Z,29.07
2018-02-16T06:07:50.552Z,29.87
2018-02-16T06:10:18.062Z,32.00
2018-02-16T06:12:45.913Z,23.83
2018-02-16T06:15:14.172Z,24.67
2018-02-16T06:17:41.697Z,26.70
2018-02-16T06:20:09.195Z,27.40
2018-02-16T06:22:36.687Z,28.07
2018-02-16T06:25:04.500Z,30.30
2018-02-16T06:27:31.990Z,21.87
2018-02-16T06:29:59.485Z,34.13
2018-02-16T06:32:27.010Z,27.07
2018-02-16T06:34:54.514Z,22.27
2018-02-16T06:37:22.445Z,25.20
2018-02-16T06:39:50.043Z,22.27
2018-02-16T06:42:17.603Z,26.70
2018-02-16T06:44:45.105Z,21.60
2018-02-16T06:47:12.608Z,28.87
2018-02-16T06:49:40.448Z,28.30
2018-02-16T06:52:07.944Z,28.93
2018-02-16T06:54:35.451Z,30.27
2018-02-16T06:57:02.963Z,32.43
2018-02-16T06:59:30.466Z,24.70
2018-02-16T07:01:58.342Z,27.03
2018-02-16T07:04:25.847Z,28.33
2018-02-16T07:06:53.341Z,30.43
2018-02-16T07:09:21.328Z,24.90
2018-02-16T07:11:48.838Z,28.00
2018-02-16T07:14:16.346Z,24.50
2018-02-16T07:16:44.787Z,20.97
2018-02-16T07:19:13.064Z,25.13
2018-02-16T07:21:41.617Z,22.83
2018-02-16T07:24:09.120Z,21.53
2018-02-16T07:26:36.635Z,21.63
2018-02-16T07:29:04.150Z,23.07
2018-02-16T07:31:31.661Z,28.20
2018-02-16T07:33:59.470Z,30.93
2018-02-16T07:36:26.995Z,25.20
2018-02-16T07:38:54.497Z,26.30
2018-02-16T07:41:22.007Z,26.77
2018-02-16T07:43:49.996Z,21.37
2018-02-16T07:46:18.567Z,24.13
2018-02-16T07:48:46.214Z,26.00
2018-02-16T07:51:13.792Z,30.47
2018-02-16T07:53:42.179Z,16.70
2018-02-16T07:56:09.709Z,23.60
2018-02-16T07:58:40.441Z,18.03
2018-02-16T08:01:08.888Z,22.33
2018-02-16T08:03:36.388Z,21.87
2018-02-16T08:06:03.971Z,25.93
2018-02-16T08:08:31.477Z,21.33
2018-02-16T08:10:59.310Z,19.90
2018-02-16T08:13:27.652Z,22.43
2018-02-16T08:15:55.942Z,18.03
2018-02-16T08:18:24.208Z,22.83
2018-02-16T08:20:52.495Z,23.70
2018-02-16T08:23:21.092Z,21.67
2018-02-16T08:25:48.587Z,23.23
2018-02-16T08:28:16.187Z,24.23
2018-02-16T08:30:44.774Z,23.57
2018-02-16T08:33:12.299Z,20.23
2018-02-16T08:35:40.723Z,24.77
2018-02-16T08:38:08.711Z,25.27
2018-02-16T08:40:36.247Z,29.23
2018-02-16T08:43:05.439Z,21.97
2018-02-16T08:45:33.808Z,19.13
2018-02-16T08:48:01.294Z,24.77
2018-02-16T08:50:28.796Z,19.00
2018-02-16T08:52:56.600Z,19.93
2018-02-16T08:55:24.129Z,17.70
2018-02-16T08:57:51.734Z,18.97
2018-02-16T09:00:19.835Z,19.17
2018-02-16T09:02:47.341Z,21.90
2018-02-16T09:05:15.596Z,19.50
2018-02-16T09:07:43.383Z,20.33
2018-02-16T09:10:10.881Z,20.50
2018-02-16T09:12:38.411Z,22.97
2018-02-16T09:15:06.266Z,20.00
2018-02-16T09:17:33.796Z,15.03
2018-02-16T09:20:01.290Z,19.73
2018-02-16T09:22:29.844Z,19.67
2018-02-16T09:24:57.332Z,20.73
2018-02-16T09:27:24.832Z,20.73
2018-02-16T09:29:52.765Z,18.03
2018-02-16T09:32:20.249Z,18.30
2018-02-16T09:34:47.750Z,13.30
2018-02-16T09:37:17.453Z,14.37
2018-02-16T09:39:47.094Z,22.37
2018-02-16T09:42:14.587Z,18.27
2018-02-16T09:44:42.407Z,21.03
2018-02-16T09:47:09.912Z,18.73
2018-02-16T09:49:37.404Z,19.67
2018-02-16T09:52:05.296Z,12.77
2018-02-16T09:54:32.830Z,14.20
2018-02-16T09:57:00.296Z,15.13
2018-02-16T09:59:28.092Z,17.17
2018-02-16T10:01:55.603Z,16.53
2018-02-16T10:04:23.091Z,24.30
2018-02-16T10:06:50.963Z,15.13
2018-02-16T10:09:18.462Z,17.07
2018-02-16T10:11:45.942Z,22.90
2018-02-16T10:14:14.554Z,15.27
2018-02-16T10:16:42.098Z,16.73
2018-02-16T10:19:09.607Z,13.77
2018-02-16T10:21:37.527Z,15.00
2018-02-16T10:24:05.806Z,11.40
2018-02-16T10:26:34.063Z,23.27
2018-02-16T10:29:02.587Z,15.27
2018-02-16T10:31:30.214Z,17.53
2018-02-16T10:33:57.719Z,15.90
2018-02-16T10:36:25.523Z,17.40
2018-02-16T10:38:53.022Z,16.67
2018-02-16T10:41:20.525Z,18.37
2018-02-16T10:43:48.331Z,16.37
2018-02-16T10:46:15.823Z,15.73
2018-02-16T10:48:43.327Z,16.97
2018-02-16T10:51:11.922Z,13.97
2018-02-16T10:53:39.465Z,13.03
2018-02-16T10:56:07.884Z,16.80
2018-02-16T10:58:35.937Z,14.37
2018-02-16T11:01:09.024Z,12.90
2018-02-16T11:03:38.754Z,14.20
2018-02-16T11:06:12.321Z,22.63
2018-02-16T11:08:45.928Z,11.77
2018-02-16T11:11:13.436Z,23.93
2018-02-16T11:13:40.967Z,16.93
2018-02-16T11:16:08.817Z,14.60
2018-02-16T11:18:36.531Z,14.53
2018-02-16T11:21:04.035Z,17.27
2018-02-16T11:23:32.619Z,13.27
2018-02-16T11:26:00.123Z,20.10
2018-02-16T11:28:27.615Z,23.60
2018-02-16T11:30:56.234Z,10.97
2018-02-16T11:33:23.759Z,16.70
2018-02-16T11:35:52.029Z,16.23
2018-02-16T11:38:20.639Z,13.97
2018-02-16T11:40:48.127Z,12.90
2018-02-16T11:43:15.616Z,17.90
2018-02-16T11:45:43.403Z,13.20
2018-02-16T11:48:10.888Z,16.37
2018-02-16T11:50:38.378Z,14.37
2018-02-16T11:53:07.007Z,15.60
2018-02-16T11:55:34.501Z,13.30
2018-02-16T11:58:02.125Z,12.60
2018-02-16T12:00:30.029Z,15.77
2018-02-16T12:02:57.530Z,15.13
2018-02-16T12:05:25.029Z,16.47
2018-02-16T12:07:52.800Z,10.47
2018-02-16T12:10:20.290Z,13.20
2018-02-16T12:12:47.825Z,12.13
2018-02-16T12:15:15.612Z,14.50
2018-02-16T12:17:43.186Z,14.27
2018-02-16T12:20:10.666Z,20.20
2018-02-16T12:22:39.190Z,14.60
2018-02-16T12:25:06.727Z,16.63
2018-02-16T12:27:34.210Z,10.33
2018-02-16T12:30:02.763Z,12.13
2018-02-16T12:32:30.752Z,10.67
2018-02-16T12:34:58.239Z,7.80
2018-02-16T12:37:26.048Z,12.13
2018-02-16T12:39:53.564Z,14.47
2018-02-16T12:42:21.064Z,11.53
2018-02-16T12:44:49.032Z,15.30
2018-02-16T12:47:16.552Z,14.67
2018-02-16T12:49:44.835Z,13.70
2018-02-16T12:52:12.864Z,13.50
2018-02-16T12:54:40.381Z,14.60
2018-02-16T12:57:08.648Z,13.87
2018-02-16T12:59:37.247Z,16.93
2018-02-16T13:02:04.783Z,15.17
2018-02-16T13:04:33.062Z,12.87
2018-02-16T13:07:01.690Z,9.73
2018-02-16T13:09:29.321Z,16.93
2018-02-16T13:11:56.812Z,10.67
2018-02-16T13:14:24.647Z,13.77
2018-02-16T13:16:52.185Z,12.87
2018-02-16T13:19:19.686Z,15.23
2018-02-16T13:21:47.638Z,18.17
2018-02-16T13:24:15.151Z,10.33
2018-02-16T13:26:42.672Z,15.90
2018-02-16T13:29:10.468Z,17.10
2018-02-16T13:31:37.971Z,16.17
2018-02-16T13:34:06.260Z,12.53
2018-02-16T13:36:34.073Z,12.17
2018-02-16T13:39:02.401Z,14.83
2018-02-16T13:41:29.890Z,16.97
2018-02-16T13:43:57.908Z,12.87
2018-02-16T13:46:26.379Z,18.50
2018-02-16T13:48:54.647Z,12.33
2018-02-16T13:51:23.055Z,12.13
2018-02-16T13:53:50.557Z,14.73
2018-02-16T13:56:18.043Z,11.07
2018-02-16T13:58:46.049Z,9.83
2018-02-16T14:01:13.561Z,13.00
2018-02-16T14:03:41.851Z,13.23
2018-02-16T14:06:10.472Z,11.53
2018-02-16T14:08:37.973Z,10.77
2018-02-16T14:11:05.463Z,9.07
2018-02-16T14:13:33.342Z,12.73
2018-02-16T14:16:00.849Z,15.80
2018-02-16T14:18:28.344Z,14.20
2018-02-16T14:20:56.941Z,16.37
2018-02-16T14:23:24.465Z,16.40
2018-02-16T14:25:51.968Z,8.57
2018-02-16T14:28:19.934Z,15.17
2018-02-16T14:30:47.441Z,10.50
2018-02-16T14:33:14.930Z,12.80
2018-02-16T14:35:43.506Z,16.87
2018-02-16T14:38:11.767Z,12.83
2018-02-16T14:40:39.266Z,14.27
2018-02-16T14:43:07.055Z,13.70
2018-02-16T14:45:34.574Z,10.50
2018-02-16T14:48:02.083Z,15.57
2018-02-16T14:50:29.986Z,13.57
2018-02-16T14:52:57.492Z,14.13
2018-02-16T14:55:25.757Z,13.60
2018-02-16T14:57:53.562Z,13.57
2018-02-16T15:00:21.116Z,12.20
2018-02-16T15:02:48.618Z,11.77
2018-02-16T15:05:16.607Z,13.70
2018-02-16T15:07:44.111Z,14.73
2018-02-16T15:10:11.603Z,12.50
2018-02-16T15:12:39.452Z,12.80
2018-02-16T15:15:06.947Z,9.73
2018-02-16T15:17:34.443Z,10.50
2018-02-16T15:20:02.231Z,12.63
2018-02-16T15:22:29.737Z,15.00
2018-02-16T15:24:57.253Z,15.67
2018-02-16T15:27:25.115Z,10.70
2018-02-16T15:29:52.615Z,12.80
2018-02-16T15:32:20.126Z,13.90
2018-02-16T15:34:48.108Z,13.67
2018-02-16T15:37:15.610Z,13.43
2018-02-16T15:39:43.147Z,12.57
2018-02-16T15:42:11.095Z,12.03
2018-02-16T15:44:38.604Z,8.97
2018-02-16T15:47:06.101Z,14.90
2018-02-16T15:49:33.971Z,12.10
2018-02-16T15:52:01.490Z,12.50
2018-02-16T15:54:29.781Z,14.40
2018-02-16T15:56:57.584Z,9.57
2018-02-16T15:59:25.083Z,12.10
2018-02-16T16:01:52.589Z,10.80
2018-02-16T16:04:20.552Z,10.67
2018-02-16T16:06:48.065Z,11.17
2018-02-16T16:09:15.576Z,13.27
2018-02-16T16:11:43.474Z,12.97
2018-02-16T16:14:10.969Z,11.33
2018-02-16T16:16:38.470Z,15.63
2018-02-16T16:19:06.367Z,13.20
2018-02-16T16:21:33.860Z,16.10
2018-02-16T16:24:02.133Z,16.83
2018-02-16T16:26:30.033Z,11.03
2018-02-16T16:28:57.548Z,17.17
2018-02-16T16:31:25.049Z,18.63
2018-02-16T16:33:52.855Z,14.27
2018-02-16T16:36:20.458Z,12.97
2018-02-16T16:38:48.012Z,16.67
2018-02-16T16:41:16.589Z,12.27
2018-02-16T16:43:44.894Z,13.03
2018-02-16T16:46:12.520Z,11.67
2018-02-16T16:48:40.442Z,13.10
2018-02-16T16:51:08.069Z,14.10
2018-02-16T16:53:35.580Z,12.17
2018-02-16T16:56:03.610Z,17.50
2018-02-16T16:58:31.178Z,17.27
2018-02-16T17:00:58.691Z,18.47
2018-02-16T17:03:26.526Z,15.53
2018-02-16T17:05:54.032Z,17.87
2018-02-16T17:08:21.543Z,12.07
2018-02-16T17:10:49.384Z,14.73
2018-02-16T17:13:16.880Z,16.00
2018-02-16T17:15:44.368Z,21.13
2018-02-16T17:18:12.264Z,13.87
2018-02-16T17:20:39.760Z,20.00
2018-02-16T17:23:07.263Z,14.33
2018-02-16T17:25:35.074Z,18.53
2018-02-16T17:28:02.617Z,14.33
2018-02-16T17:30:30.120Z,18.10
2018-02-16T17:32:58.035Z,13.20
2018-02-16T17:35:25.532Z,17.50
2018-02-16T17:37:53.532Z,13.00
2018-02-16T17:40:21.396Z,11.53
2018-02-16T17:42:48.923Z,16.37
2018-02-16T17:45:16.417Z,15.97
2018-02-16T17:47:44.988Z,19.63
2018-02-16T17:50:12.527Z,18.57
2018-02-16T17:52:40.211Z,11.40
2018-02-16T17:55:08.032Z,15.23
2018-02-16T17:57:35.576Z,16.10
2018-02-16T18:00:03.137Z,13.03
2018-02-16T18:02:31.021Z,15.00
2018-02-16T18:04:58.516Z,13.37
2018-02-16T18:07:26.767Z,12.03
2018-02-16T18:09:54.577Z,18.23
2018-02-16T18:12:22.136Z,13.77
2018-02-16T18:14:49.631Z,15.63
2018-02-16T18:17:17.424Z,12.50
2018-02-16T18:19:45.698Z,19.50
2018-02-16T18:22:13.991Z,20.33
2018-02-16T18:24:42.064Z,19.73
2018-02-16T18:27:09.552Z,23.03
2018-02-16T18:29:37.298Z,15.83
2018-02-16T18:32:05.341Z,15.80
2018-02-16T18:34:33.016Z,17.80
2018-02-16T18:37:00.520Z,16.43
2018-02-16T18:39:28.521Z,14.03
2018-02-16T18:41:56.068Z,17.47
2018-02-16T18:44:23.576Z,19.47
2018-02-16T18:46:51.472Z,14.33
2018-02-16T18:49:19.100Z,23.70
2018-02-16T18:51:46.614Z,18.63
2018-02-16T18:54:14.622Z,30.90
2018-02-16T18:56:42.185Z,26.43
2018-02-16T18:59:09.774Z,18.73
2018-02-16T19:01:37.623Z,29.37
2018-02-16T19:04:05.161Z,18.97
2018-02-16T19:06:32.704Z,18.97
2018-02-16T19:09:00.595Z,22.03
2018-02-16T19:11:28.084Z,19.70
2018-02-16T19:13:55.621Z,21.57
2018-02-16T19:16:23.514Z,19.30
2018-02-16T19:18:51.041Z,18.97
2018-02-16T19:21:18.560Z,23.50
2018-02-16T19:23:47.235Z,23.87
2018-02-16T19:26:15.635Z,26.23
2018-02-16T19:28:43.183Z,29.90
2018-02-16T19:31:11.827Z,24.67
2018-02-16T19:33:39.469Z,23.97
2018-02-16T19:36:07.034Z,23.43
2018-02-16T19:38:34.882Z,25.07
2018-02-16T19:53:57.880Z,19.30
2018-02-16T19:56:26.203Z,23.43
2018-02-16T19:58:53.771Z,25.77
2018-02-16T20:01:21.635Z,23.70
2018-02-16T20:03:49.174Z,17.23
2018-02-16T20:06:16.737Z,25.57
2018-02-16T20:08:46.056Z,17.17
2018-02-16T20:11:13.649Z,18.17
2018-02-16T20:13:41.217Z,24.47
2018-02-16T20:16:09.801Z,20.23
2018-02-16T20:18:37.579Z,22.90
2018-02-16T20:21:05.896Z,23.77
2018-02-16T20:23:33.789Z,21.27
2018-02-16T20:26:01.337Z,23.63
2018-02-16T20:28:29.026Z,23.80
2018-02-16T20:30:56.876Z,21.37
2018-02-16T20:33:24.453Z,19.90
2018-02-16T20:35:52.814Z,15.50
2018-02-16T20:38:22.202Z,18.47
2018-02-16T20:40:49.742Z,19.07
2018-02-16T20:43:18.762Z,18.03
2018-02-16T20:45:46.821Z,14.40
2018-02-16T20:48:14.399Z,18.73
2018-02-16T20:50:42.773Z,19.13
2018-02-16T20:53:10.651Z,14.60
2018-02-16T20:55:38.182Z,14.47
2018-02-16T20:58:05.763Z,17.00
2018-02-16T21:00:33.792Z,16.80
2018-02-16T21:03:02.134Z,17.37
2018-02-16T21:18:25.137Z,17.73
2018-02-16T21:20:52.689Z,20.53
2018-02-16T21:23:20.232Z,19.73
2018-02-16T21:25:48.114Z,17.60
2018-02-16T21:28:15.649Z,15.07
2018-02-16T21:30:44.211Z,20.80
2018-02-16T21:33:12.107Z,19.80
2018-02-16T21:35:39.618Z,15.63
2018-02-16T21:38:08.803Z,17.63
2018-02-16T21:40:36.740Z,17.90
2018-02-16T21:43:04.252Z,14.40
2018-02-16T21:45:31.832Z,34.87
2018-02-16T21:47:59.810Z,17.90
2018-02-16T21:50:27.316Z,15.40
2018-02-16T21:52:54.837Z,13.73
2018-02-16T21:55:22.715Z,20.00
2018-02-16T21:57:50.207Z,13.77
2018-02-16T22:00:17.778Z,14.70
2018-02-16T22:02:45.714Z,15.83
2018-02-16T22:05:13.288Z,16.23
2018-02-16T22:07:40.794Z,14.00
2018-02-16T22:10:08.762Z,22.60
2018-02-16T22:12:36.265Z,20.03
2018-02-16T22:15:03.764Z,14.67
2018-02-16T22:17:31.566Z,19.40
2018-02-16T22:19:59.096Z,13.73
2018-02-16T22:22:26.584Z,7.40
2018-02-16T22:24:54.415Z,11.00
2018-02-16T22:27:21.925Z,11.10
2018-02-16T22:29:49.428Z,11.87
2018-02-16T22:32:17.878Z,13.93
2018-02-16T22:34:45.396Z,15.07
2018-02-16T22:37:12.901Z,15.77
2018-02-16T22:39:40.882Z,19.37
2018-02-16T22:42:08.382Z,17.53
2018-02-16T22:44:35.895Z,20.33
2018-02-16T22:47:04.468Z,15.70
2018-02-16T22:49:31.983Z,19.57
2018-02-16T22:51:59.517Z,16.60
2018-02-16T22:54:27.377Z,17.53
2018-02-16T22:56:54.868Z,18.67
2018-02-16T22:59:22.356Z,15.73
2018-02-16T23:01:50.258Z,16.03
2018-02-16T23:04:17.821Z,14.90
2018-02-16T23:06:45.307Z,15.93
2018-02-16T23:09:13.107Z,17.33
2018-02-16T23:11:41.363Z,15.63
2018-02-16T23:14:08.892Z,14.37
2018-02-16T23:16:36.676Z,14.77
2018-02-16T23:19:04.180Z,15.60
2018-02-16T23:21:31.667Z,15.27
2018-02-16T23:23:59.614Z,11.17
2018-02-16T23:26:27.129Z,15.87
2018-02-16T23:28:54.663Z,17.60
2018-02-16T23:31:22.483Z,17.10
2018-02-16T23:33:49.966Z,21.23
2018-02-16T23:36:17.472Z,19.67
2018-02-16T23:38:45.323Z,15.10
2018-02-16T23:41:12.832Z,15.00
2018-02-16T23:43:40.302Z,20.77
2018-02-16T23:46:08.214Z,17.77
2018-02-16T23:48:35.733Z,15.43
2018-02-16T23:51:03.281Z,16.00
2018-02-16T23:53:31.181Z,14.33
2018-02-16T23:55:58.690Z,19.07
2018-02-16T23:58:26.230Z,16.60
